Terminal Aerodrome Forecast
Issued by NWS

Home | Current Version | Previous Version | Text Only | Print | Product List | Glossary On
Versions: 1 2 3 4 5 6 7 8 9 10 11 12 13 14 15 16 17 18
000
FTUS46 KSEW 251100
TAFOLM
TAF
KOLM 251120Z 2512/2612 00000KT 1/4SM FZFG VV002
      TEMPO 2516/2520 2SM -SHRA OVC003
     FM252000 29003KT 4SM BR OVC007
     FM260000 20003KT P6SM OVC015
     FM260600 22002KT 1/2SM FG OVC007=

USA.gov is the U.S. government's official web portal to all federal, state and local government web resources and services.